sensor_id;sensor_type;location;lat;lon;timestamp;temperature;humidity
41592;DHT22;28026;48.562;14.440;2023-03-13T00:00:25;4.10;99.90
41592;DHT22;28026;48.562;14.440;2023-03-13T00:02:56;4.10;99.90
41592;DHT22;28026;48.562;14.440;2023-03-13T00:05:27;4.00;99.90
41592;DHT22;28026;48.562;14.440;2023-03-13T00:07:58;4.10;99.90
41592;DHT22;28026;48.562;14.440;2023-03-13T00:10:29;4.00;99.90
41592;DHT22;28026;48.562;14.440;2023-03-13T00:12:59;4.00;99.90
41592;DHT22;28026;48.562;14.440;2023-03-13T00:15:30;3.90;99.90
41592;DHT22;28026;48.562;14.440;2023-03-13T00:18:01;3.70;99.90
41592;DHT22;28026;48.562;14.440;2023-03-13T00:20:32;3.70;99.90
41592;DHT22;28026;48.562;14.440;2023-03-13T00:23:03;3.70;99.90
41592;DHT22;28026;48.562;14.440;2023-03-13T00:25:34;3.70;99.90
41592;DHT22;28026;48.562;14.440;2023-03-13T00:28:05;3.80;99.90
41592;DHT22;28026;48.562;14.440;2023-03-13T00:30:35;3.80;99.90
41592;DHT22;28026;48.562;14.440;2023-03-13T00:33:06;4.00;99.90
41592;DHT22;28026;48.562;14.440;2023-03-13T00:35:37;4.00;99.90
41592;DHT22;28026;48.562;14.440;2023-03-13T00:38:08;4.10;99.90
41592;DHT22;28026;48.562;14.440;2023-03-13T00:40:39;4.10;99.90
41592;DHT22;28026;48.562;14.440;2023-03-13T00:43:10;4.20;99.90
41592;DHT22;28026;48.562;14.440;2023-03-13T00:45:41;4.20;99.90
41592;DHT22;28026;48.562;14.440;2023-03-13T00:48:11;4.40;99.90
41592;DHT22;28026;48.562;14.440;2023-03-13T00:50:42;4.30;99.90
41592;DHT22;28026;48.562;14.440;2023-03-13T00:53:14;4.40;99.90
41592;DHT22;28026;48.562;14.440;2023-03-13T00:55:56;4.40;99.90
41592;DHT22;28026;48.562;14.440;2023-03-13T00:58:38;4.20;99.90
41592;DHT22;28026;48.562;14.440;2023-03-13T01:03:53;4.30;99.90
41592;DHT22;28026;48.562;14.440;2023-03-13T01:06:38;4.10;99.90
41592;DHT22;28026;48.562;14.440;2023-03-13T01:09:13;4.00;99.90
41592;DHT22;28026;48.562;14.440;2023-03-13T01:11:46;4.00;99.90
41592;DHT22;28026;48.562;14.440;2023-03-13T01:14:18;3.90;99.90
41592;DHT22;28026;48.562;14.440;2023-03-13T01:16:49;4.00;99.90
41592;DHT22;28026;48.562;14.440;2023-03-13T01:19:20;4.00;99.90
41592;DHT22;28026;48.562;14.440;2023-03-13T01:21:51;4.00;99.90
41592;DHT22;28026;48.562;14.440;2023-03-13T01:24:22;3.90;99.90
41592;DHT22;28026;48.562;14.440;2023-03-13T01:26:53;4.00;99.90
41592;DHT22;28026;48.562;14.440;2023-03-13T01:29:24;3.90;99.90
41592;DHT22;28026;48.562;14.440;2023-03-13T01:31:55;4.00;99.90
41592;DHT22;28026;48.562;14.440;2023-03-13T01:34:26;4.00;99.90
41592;DHT22;28026;48.562;14.440;2023-03-13T01:36:57;4.10;99.90
41592;DHT22;28026;48.562;14.440;2023-03-13T01:39:28;4.00;99.90
41592;DHT22;28026;48.562;14.440;2023-03-13T01:41:58;4.10;99.90
41592;DHT22;28026;48.562;14.440;2023-03-13T01:44:49;4.20;99.90
41592;DHT22;28026;48.562;14.440;2023-03-13T01:47:27;4.20;99.90
41592;DHT22;28026;48.562;14.440;2023-03-13T01:49:58;4.20;99.90
41592;DHT22;28026;48.562;14.440;2023-03-13T01:52:29;4.20;99.90
41592;DHT22;28026;48.562;14.440;2023-03-13T01:55:11;4.10;99.90
41592;DHT22;28026;48.562;14.440;2023-03-13T01:57:49;4.10;99.90
41592;DHT22;28026;48.562;14.440;2023-03-13T02:00:26;4.00;99.90
41592;DHT22;28026;48.562;14.440;2023-03-13T02:03:11;4.10;99.90
41592;DHT22;28026;48.562;14.440;2023-03-13T02:05:49;4.10;99.90
41592;DHT22;28026;48.562;14.440;2023-03-13T02:08:25;4.10;99.90
41592;DHT22;28026;48.562;14.440;2023-03-13T02:11:15;4.10;99.90
41592;DHT22;28026;48.562;14.440;2023-03-13T02:14:15;4.10;99.90
41592;DHT22;28026;48.562;14.440;2023-03-13T02:16:51;4.10;99.90
41592;DHT22;28026;48.562;14.440;2023-03-13T02:19:47;4.10;99.90
41592;DHT22;28026;48.562;14.440;2023-03-13T02:25:52;4.00;99.90
41592;DHT22;28026;48.562;14.440;2023-03-13T02:28:27;4.00;99.90
41592;DHT22;28026;48.562;14.440;2023-03-13T02:31:05;3.90;99.90
41592;DHT22;28026;48.562;14.440;2023-03-13T02:33:41;4.00;99.90
41592;DHT22;28026;48.562;14.440;2023-03-13T02:36:15;4.00;99.90
41592;DHT22;28026;48.562;14.440;2023-03-13T02:39:06;4.00;99.90
41592;DHT22;28026;48.562;14.440;2023-03-13T02:41:39;4.00;99.90
41592;DHT22;28026;48.562;14.440;2023-03-13T02:44:13;4.00;99.90
41592;DHT22;28026;48.562;14.440;2023-03-13T02:46:49;3.90;99.90
41592;DHT22;28026;48.562;14.440;2023-03-13T02:49:28;3.90;99.90
41592;DHT22;28026;48.562;14.440;2023-03-13T02:52:09;3.80;99.90
41592;DHT22;28026;48.562;14.440;2023-03-13T02:54:49;3.70;99.90
41592;DHT22;28026;48.562;14.440;2023-03-13T02:57:28;3.70;99.90
41592;DHT22;28026;48.562;14.440;2023-03-13T02:59:59;3.70;99.90
41592;DHT22;28026;48.562;14.440;2023-03-13T03:02:30;3.70;99.90
41592;DHT22;28026;48.562;14.440;2023-03-13T03:05:00;3.70;99.90
41592;DHT22;28026;48.562;14.440;2023-03-13T03:07:31;3.60;99.90
41592;DHT22;28026;48.562;14.440;2023-03-13T03:10:03;3.70;99.90
41592;DHT22;28026;48.562;14.440;2023-03-13T03:12:35;3.70;99.90
41592;DHT22;28026;48.562;14.440;2023-03-13T03:15:06;3.60;99.90
41592;DHT22;28026;48.562;14.440;2023-03-13T03:17:38;3.60;99.90
41592;DHT22;28026;48.562;14.440;2023-03-13T03:20:09;3.60;99.90
41592;DHT22;28026;48.562;14.440;2023-03-13T03:22:41;3.60;99.90
41592;DHT22;28026;48.562;14.440;2023-03-13T03:25:12;3.70;99.90
41592;DHT22;28026;48.562;14.440;2023-03-13T03:27:43;3.80;99.90
41592;DHT22;28026;48.562;14.440;2023-03-13T03:30:14;3.70;99.90
41592;DHT22;28026;48.562;14.440;2023-03-13T03:32:45;3.70;99.90
41592;DHT22;28026;48.562;14.440;2023-03-13T03:35:16;3.80;99.90
41592;DHT22;28026;48.562;14.440;2023-03-13T03:37:47;3.70;99.90
41592;DHT22;28026;48.562;14.440;2023-03-13T03:40:18;3.90;99.90
41592;DHT22;28026;48.562;14.440;2023-03-13T03:42:50;4.30;99.90
41592;DHT22;28026;48.562;14.440;2023-03-13T03:45:21;4.50;99.90
41592;DHT22;28026;48.562;14.440;2023-03-13T03:47:52;4.20;99.90
41592;DHT22;28026;48.562;14.440;2023-03-13T03:50:23;4.30;99.90
41592;DHT22;28026;48.562;14.440;2023-03-13T03:52:54;4.30;99.90
41592;DHT22;28026;48.562;14.440;2023-03-13T03:55:25;4.40;99.90
41592;DHT22;28026;48.562;14.440;2023-03-13T03:57:55;4.10;99.90
41592;DHT22;28026;48.562;14.440;2023-03-13T04:00:26;4.00;99.90
41592;DHT22;28026;48.562;14.440;2023-03-13T04:02:57;4.00;99.90
41592;DHT22;28026;48.562;14.440;2023-03-13T04:05:28;3.90;99.90
41592;DHT22;28026;48.562;14.440;2023-03-13T04:07:59;3.90;99.90
41592;DHT22;28026;48.562;14.440;2023-03-13T04:10:30;4.00;99.90
41592;DHT22;28026;48.562;14.440;2023-03-13T04:13:01;3.90;99.90
41592;DHT22;28026;48.562;14.440;2023-03-13T04:15:32;3.80;99.90
41592;DHT22;28026;48.562;14.440;2023-03-13T04:18:03;3.80;99.90
41592;DHT22;28026;48.562;14.440;2023-03-13T04:20:34;3.80;99.90
41592;DHT22;28026;48.562;14.440;2023-03-13T04:23:06;3.80;99.90
41592;DHT22;28026;48.562;14.440;2023-03-13T04:25:37;3.70;99.90
41592;DHT22;28026;48.562;14.440;2023-03-13T04:28:08;3.60;99.90
41592;DHT22;28026;48.562;14.440;2023-03-13T04:30:38;3.60;99.90
41592;DHT22;28026;48.562;14.440;2023-03-13T04:33:10;3.60;99.90
41592;DHT22;28026;48.562;14.440;2023-03-13T04:35:41;3.60;99.90
41592;DHT22;28026;48.562;14.440;2023-03-13T04:38:12;3.60;99.90
41592;DHT22;28026;48.562;14.440;2023-03-13T04:40:42;3.60;99.90
41592;DHT22;28026;48.562;14.440;2023-03-13T04:43:13;3.50;99.90
41592;DHT22;28026;48.562;14.440;2023-03-13T04:45:44;3.50;99.90
41592;DHT22;28026;48.562;14.440;2023-03-13T04:48:16;3.50;99.90
41592;DHT22;28026;48.562;14.440;2023-03-13T04:50:47;3.50;99.90
41592;DHT22;28026;48.562;14.440;2023-03-13T04:53:19;3.50;99.90
41592;DHT22;28026;48.562;14.440;2023-03-13T04:55:50;3.40;99.90
41592;DHT22;28026;48.562;14.440;2023-03-13T04:58:21;3.50;99.90
41592;DHT22;28026;48.562;14.440;2023-03-13T05:00:52;3.40;99.90
41592;DHT22;28026;48.562;14.440;2023-03-13T05:03:24;3.40;99.90
41592;DHT22;28026;48.562;14.440;2023-03-13T05:05:55;3.30;99.90
41592;DHT22;28026;48.562;14.440;2023-03-13T05:08:26;3.30;99.90
41592;DHT22;28026;48.562;14.440;2023-03-13T05:10:56;3.20;99.90
41592;DHT22;28026;48.562;14.440;2023-03-13T05:13:28;3.20;99.90
41592;DHT22;28026;48.562;14.440;2023-03-13T05:15:59;3.20;99.90
41592;DHT22;28026;48.562;14.440;2023-03-13T05:18:30;3.30;99.90
41592;DHT22;28026;48.562;14.440;2023-03-13T05:21:01;3.30;99.90
41592;DHT22;28026;48.562;14.440;2023-03-13T05:23:33;3.30;99.90
41592;DHT22;28026;48.562;14.440;2023-03-13T05:26:04;3.30;99.90
41592;DHT22;28026;48.562;14.440;2023-03-13T05:28:35;3.40;99.90
41592;DHT22;28026;48.562;14.440;2023-03-13T05:31:05;3.40;99.90
41592;DHT22;28026;48.562;14.440;2023-03-13T05:33:36;3.30;99.90
41592;DHT22;28026;48.562;14.440;2023-03-13T05:36:07;3.40;99.90
41592;DHT22;28026;48.562;14.440;2023-03-13T05:38:38;3.40;99.90
41592;DHT22;28026;48.562;14.440;2023-03-13T05:41:09;3.40;99.90
41592;DHT22;28026;48.562;14.440;2023-03-13T05:43:40;3.40;99.90
41592;DHT22;28026;48.562;14.440;2023-03-13T05:46:11;3.40;99.90
41592;DHT22;28026;48.562;14.440;2023-03-13T05:48:42;3.40;99.90
41592;DHT22;28026;48.562;14.440;2023-03-13T05:51:14;3.50;99.90
41592;DHT22;28026;48.562;14.440;2023-03-13T05:53:45;3.40;99.90
41592;DHT22;28026;48.562;14.440;2023-03-13T05:56:16;3.50;99.90
41592;DHT22;28026;48.562;14.440;2023-03-13T05:58:47;3.50;99.90
41592;DHT22;28026;48.562;14.440;2023-03-13T06:01:18;3.40;99.90
41592;DHT22;28026;48.562;14.440;2023-03-13T06:03:49;3.50;99.90
41592;DHT22;28026;48.562;14.440;2023-03-13T06:06:20;3.60;99.90
41592;DHT22;28026;48.562;14.440;2023-03-13T06:08:52;3.80;99.90
41592;DHT22;28026;48.562;14.440;2023-03-13T06:11:23;3.80;99.90
41592;DHT22;28026;48.562;14.440;2023-03-13T06:13:54;3.90;99.90
41592;DHT22;28026;48.562;14.440;2023-03-13T06:16:24;4.00;99.90
41592;DHT22;28026;48.562;14.440;2023-03-13T06:18:56;4.10;99.90
41592;DHT22;28026;48.562;14.440;2023-03-13T06:21:27;4.10;99.90
41592;DHT22;28026;48.562;14.440;2023-03-13T06:23:58;4.20;99.90
41592;DHT22;28026;48.562;14.440;2023-03-13T06:26:29;4.30;99.90
41592;DHT22;28026;48.562;14.440;2023-03-13T06:29:00;4.20;99.90
41592;DHT22;28026;48.562;14.440;2023-03-13T06:31:31;4.20;99.90
41592;DHT22;28026;48.562;14.440;2023-03-13T06:34:02;4.10;99.90
41592;DHT22;28026;48.562;14.440;2023-03-13T06:36:33;4.20;99.90
41592;DHT22;28026;48.562;14.440;2023-03-13T06:39:04;4.20;99.90
41592;DHT22;28026;48.562;14.440;2023-03-13T06:41:35;4.20;99.90
41592;DHT22;28026;48.562;14.440;2023-03-13T06:44:06;4.20;99.90
41592;DHT22;28026;48.562;14.440;2023-03-13T06:46:37;4.30;99.90
41592;DHT22;28026;48.562;14.440;2023-03-13T06:49:08;4.40;99.90
41592;DHT22;28026;48.562;14.440;2023-03-13T06:51:39;4.50;99.90
41592;DHT22;28026;48.562;14.440;2023-03-13T06:54:10;4.50;99.90
41592;DHT22;28026;48.562;14.440;2023-03-13T06:56:41;4.50;99.90
41592;DHT22;28026;48.562;14.440;2023-03-13T06:59:12;4.50;99.90
41592;DHT22;28026;48.562;14.440;2023-03-13T07:01:43;4.60;99.90
41592;DHT22;28026;48.562;14.440;2023-03-13T07:04:14;4.60;99.90
41592;DHT22;28026;48.562;14.440;2023-03-13T07:06:45;4.60;99.90
41592;DHT22;28026;48.562;14.440;2023-03-13T07:09:16;4.60;99.90
41592;DHT22;28026;48.562;14.440;2023-03-13T07:11:49;4.60;99.90
41592;DHT22;28026;48.562;14.440;2023-03-13T07:14:20;4.70;99.90
41592;DHT22;28026;48.562;14.440;2023-03-13T07:16:51;4.90;99.90
41592;DHT22;28026;48.562;14.440;2023-03-13T07:19:21;5.00;99.90
41592;DHT22;28026;48.562;14.440;2023-03-13T07:21:52;5.10;99.90
41592;DHT22;28026;48.562;14.440;2023-03-13T07:24:23;5.30;99.90
41592;DHT22;28026;48.562;14.440;2023-03-13T07:26:54;5.40;99.90
41592;DHT22;28026;48.562;14.440;2023-03-13T07:29:25;5.50;99.90
41592;DHT22;28026;48.562;14.440;2023-03-13T07:31:56;5.60;99.90
41592;DHT22;28026;48.562;14.440;2023-03-13T07:34:26;5.80;99.90
41592;DHT22;28026;48.562;14.440;2023-03-13T07:36:57;5.80;99.90
41592;DHT22;28026;48.562;14.440;2023-03-13T07:39:28;5.90;99.90
41592;DHT22;28026;48.562;14.440;2023-03-13T07:41:59;5.90;99.90
41592;DHT22;28026;48.562;14.440;2023-03-13T07:44:30;6.00;99.90
41592;DHT22;28026;48.562;14.440;2023-03-13T07:47:01;6.10;99.90
41592;DHT22;28026;48.562;14.440;2023-03-13T07:49:32;6.00;99.90
41592;DHT22;28026;48.562;14.440;2023-03-13T07:52:05;6.00;99.90
41592;DHT22;28026;48.562;14.440;2023-03-13T07:54:36;6.00;99.90
41592;DHT22;28026;48.562;14.440;2023-03-13T07:57:07;5.90;99.90
41592;DHT22;28026;48.562;14.440;2023-03-13T07:59:38;6.00;99.90
41592;DHT22;28026;48.562;14.440;2023-03-13T08:02:11;6.00;99.90
41592;DHT22;28026;48.562;14.440;2023-03-13T08:04:43;6.00;99.90
41592;DHT22;28026;48.562;14.440;2023-03-13T08:07:14;6.10;99.90
41592;DHT22;28026;48.562;14.440;2023-03-13T08:09:44;6.20;99.90
41592;DHT22;28026;48.562;14.440;2023-03-13T08:12:15;6.10;99.90
41592;DHT22;28026;48.562;14.440;2023-03-13T08:14:46;6.20;99.90
41592;DHT22;28026;48.562;14.440;2023-03-13T08:17:17;6.20;99.90
41592;DHT22;28026;48.562;14.440;2023-03-13T08:19:48;6.20;99.90
41592;DHT22;28026;48.562;14.440;2023-03-13T08:22:19;6.10;99.90
41592;DHT22;28026;48.562;14.440;2023-03-13T08:24:51;6.30;99.90
41592;DHT22;28026;48.562;14.440;2023-03-13T08:27:22;6.30;99.90
41592;DHT22;28026;48.562;14.440;2023-03-13T08:29:53;6.40;99.90
41592;DHT22;28026;48.562;14.440;2023-03-13T08:32:23;6.50;99.90
41592;DHT22;28026;48.562;14.440;2023-03-13T08:34:54;6.70;99.90
41592;DHT22;28026;48.562;14.440;2023-03-13T08:37:25;6.80;99.90
41592;DHT22;28026;48.562;14.440;2023-03-13T08:39:56;7.10;99.90
41592;DHT22;28026;48.562;14.440;2023-03-13T08:42:27;7.10;99.90
41592;DHT22;28026;48.562;14.440;2023-03-13T08:44:58;7.10;99.90
41592;DHT22;28026;48.562;14.440;2023-03-13T08:47:28;7.30;99.90
41592;DHT22;28026;48.562;14.440;2023-03-13T08:49:59;7.70;99.90
41592;DHT22;28026;48.562;14.440;2023-03-13T08:52:30;7.90;99.90
41592;DHT22;28026;48.562;14.440;2023-03-13T08:55:01;7.90;99.90
41592;DHT22;28026;48.562;14.440;2023-03-13T08:57:32;7.70;99.90
41592;DHT22;28026;48.562;14.440;2023-03-13T09:00:03;7.50;99.90
41592;DHT22;28026;48.562;14.440;2023-03-13T09:02:38;7.40;99.90
41592;DHT22;28026;48.562;14.440;2023-03-13T09:05:08;7.40;99.90
41592;DHT22;28026;48.562;14.440;2023-03-13T09:07:39;7.60;99.90
41592;DHT22;28026;48.562;14.440;2023-03-13T09:10:10;7.60;99.90
41592;DHT22;28026;48.562;14.440;2023-03-13T09:12:41;7.70;99.90
41592;DHT22;28026;48.562;14.440;2023-03-13T09:15:12;7.50;99.90
41592;DHT22;28026;48.562;14.440;2023-03-13T09:17:44;7.60;99.90
41592;DHT22;28026;48.562;14.440;2023-03-13T09:20:15;7.60;99.90
41592;DHT22;28026;48.562;14.440;2023-03-13T09:22:48;7.50;99.90
41592;DHT22;28026;48.562;14.440;2023-03-13T09:25:19;7.50;99.90
41592;DHT22;28026;48.562;14.440;2023-03-13T09:27:50;7.50;99.90
41592;DHT22;28026;48.562;14.440;2023-03-13T09:30:20;7.60;99.90
41592;DHT22;28026;48.562;14.440;2023-03-13T09:32:51;7.60;99.90
41592;DHT22;28026;48.562;14.440;2023-03-13T09:35:22;7.50;99.90
41592;DHT22;28026;48.562;14.440;2023-03-13T09:37:53;7.40;99.90
41592;DHT22;28026;48.562;14.440;2023-03-13T09:40:25;7.40;99.90
41592;DHT22;28026;48.562;14.440;2023-03-13T09:42:59;7.50;99.90
41592;DHT22;28026;48.562;14.440;2023-03-13T09:45:33;7.50;99.90
41592;DHT22;28026;48.562;14.440;2023-03-13T09:48:33;7.60;99.90
41592;DHT22;28026;48.562;14.440;2023-03-13T09:51:22;7.60;99.90
41592;DHT22;28026;48.562;14.440;2023-03-13T09:56:56;7.80;99.90
41592;DHT22;28026;48.562;14.440;2023-03-13T09:59:44;7.70;99.90
41592;DHT22;28026;48.562;14.440;2023-03-13T10:02:31;7.60;99.90
41592;DHT22;28026;48.562;14.440;2023-03-13T10:08:24;7.70;99.90
41592;DHT22;28026;48.562;14.440;2023-03-13T10:11:21;8.00;99.90
41592;DHT22;28026;48.562;14.440;2023-03-13T10:13:58;8.40;99.90
41592;DHT22;28026;48.562;14.440;2023-03-13T10:16:43;8.60;99.90
41592;DHT22;28026;48.562;14.440;2023-03-13T10:19:30;8.70;99.90
41592;DHT22;28026;48.562;14.440;2023-03-13T10:22:16;8.60;99.90
41592;DHT22;28026;48.562;14.440;2023-03-13T10:24:58;8.60;99.90
41592;DHT22;28026;48.562;14.440;2023-03-13T10:27:44;8.60;99.90
41592;DHT22;28026;48.562;14.440;2023-03-13T10:30:30;8.80;99.90
41592;DHT22;28026;48.562;14.440;2023-03-13T10:35:43;9.10;99.90
41592;DHT22;28026;48.562;14.440;2023-03-13T10:38:19;9.20;99.90
41592;DHT22;28026;48.562;14.440;2023-03-13T10:41:06;9.60;99.90
41592;DHT22;28026;48.562;14.440;2023-03-13T10:43:53;9.80;99.90
41592;DHT22;28026;48.562;14.440;2023-03-13T10:46:32;10.00;99.90
41592;DHT22;28026;48.562;14.440;2023-03-13T10:49:20;10.40;99.90
41592;DHT22;28026;48.562;14.440;2023-03-13T10:52:02;10.50;99.90
41592;DHT22;28026;48.562;14.440;2023-03-13T10:54:38;10.50;99.90
41592;DHT22;28026;48.562;14.440;2023-03-13T11:00:03;10.10;99.90
41592;DHT22;28026;48.562;14.440;2023-03-13T11:02:55;10.30;99.90
41592;DHT22;28026;48.562;14.440;2023-03-13T11:05:38;10.70;99.90
41592;DHT22;28026;48.562;14.440;2023-03-13T11:08:23;10.70;99.90
41592;DHT22;28026;48.562;14.440;2023-03-13T11:11:03;10.70;99.90
41592;DHT22;28026;48.562;14.440;2023-03-13T11:13:46;10.80;99.90
41592;DHT22;28026;48.562;14.440;2023-03-13T11:16:21;10.70;99.90
41592;DHT22;28026;48.562;14.440;2023-03-13T11:21:59;10.20;99.90
41592;DHT22;28026;48.562;14.440;2023-03-13T11:31:00;10.20;99.90
41592;DHT22;28026;48.562;14.440;2023-03-13T11:36:52;10.20;99.90
41592;DHT22;28026;48.562;14.440;2023-03-13T11:46:07;10.20;99.90
41592;DHT22;28026;48.562;14.440;2023-03-13T11:52:13;10.40;99.90
41592;DHT22;28026;48.562;14.440;2023-03-13T11:55:24;10.60;99.90
41592;DHT22;28026;48.562;14.440;2023-03-13T12:01:04;10.70;99.90
41592;DHT22;28026;48.562;14.440;2023-03-13T12:04:01;10.60;99.90
41592;DHT22;28026;48.562;14.440;2023-03-13T12:09:56;11.00;99.90
41592;DHT22;28026;48.562;14.440;2023-03-13T12:12:45;11.20;99.90
41592;DHT22;28026;48.562;14.440;2023-03-13T12:15:31;11.30;99.90
41592;DHT22;28026;48.562;14.440;2023-03-13T12:24:05;11.70;99.90
41592;DHT22;28026;48.562;14.440;2023-03-13T12:33:20;11.50;99.90
41592;DHT22;28026;48.562;14.440;2023-03-13T12:36:21;11.40;99.90
41592;DHT22;28026;48.562;14.440;2023-03-13T12:45:17;11.60;99.90
41592;DHT22;28026;48.562;14.440;2023-03-13T12:48:15;11.60;99.90
41592;DHT22;28026;48.562;14.440;2023-03-13T12:57:43;11.50;99.90
41592;DHT22;28026;48.562;14.440;2023-03-13T13:00:21;11.60;99.90
41592;DHT22;28026;48.562;14.440;2023-03-13T13:06:12;11.70;99.90
41592;DHT22;28026;48.562;14.440;2023-03-13T13:17:32;11.50;99.90
41592;DHT22;28026;48.562;14.440;2023-03-13T13:20:28;11.50;99.90
41592;DHT22;28026;48.562;14.440;2023-03-13T13:23:41;11.30;99.90
41592;DHT22;28026;48.562;14.440;2023-03-13T13:32:13;11.30;99.90
41592;DHT22;28026;48.562;14.440;2023-03-13T13:37:48;11.30;99.90
41592;DHT22;28026;48.562;14.440;2023-03-13T13:43:00;11.40;99.90
41592;DHT22;28026;48.562;14.440;2023-03-13T13:45:35;11.30;99.90
41592;DHT22;28026;48.562;14.440;2023-03-13T13:48:36;11.30;99.90
41592;DHT22;28026;48.562;14.440;2023-03-13T13:53:53;11.40;99.90
41592;DHT22;28026;48.562;14.440;2023-03-13T13:56:47;11.90;99.90
41592;DHT22;28026;48.562;14.440;2023-03-13T13:59:44;12.30;99.90
41592;DHT22;28026;48.562;14.440;2023-03-13T14:02:22;12.70;99.90
41592;DHT22;28026;48.562;14.440;2023-03-13T14:05:04;13.40;99.90
41592;DHT22;28026;48.562;14.440;2023-03-13T14:07:58;13.60;99.90
41592;DHT22;28026;48.562;14.440;2023-03-13T14:10:40;13.80;99.90
41592;DHT22;28026;48.562;14.440;2023-03-13T14:13:17;13.90;99.90
41592;DHT22;28026;48.562;14.440;2023-03-13T14:15:51;13.80;99.90
41592;DHT22;28026;48.562;14.440;2023-03-13T14:18:28;14.00;99.90
41592;DHT22;28026;48.562;14.440;2023-03-13T14:21:05;13.40;99.90
41592;DHT22;28026;48.562;14.440;2023-03-13T14:23:45;13.20;99.90
41592;DHT22;28026;48.562;14.440;2023-03-13T14:26:26;13.20;99.90
41592;DHT22;28026;48.562;14.440;2023-03-13T14:29:01;13.50;99.90
41592;DHT22;28026;48.562;14.440;2023-03-13T14:31:37;13.60;99.90
41592;DHT22;28026;48.562;14.440;2023-03-13T14:34:11;13.50;99.90
41592;DHT22;28026;48.562;14.440;2023-03-13T14:36:47;13.30;99.90
41592;DHT22;28026;48.562;14.440;2023-03-13T14:39:42;13.50;99.90
41592;DHT22;28026;48.562;14.440;2023-03-13T14:42:17;13.80;99.90
41592;DHT22;28026;48.562;14.440;2023-03-13T14:44:49;13.90;99.90
41592;DHT22;28026;48.562;14.440;2023-03-13T14:47:26;13.70;99.90
41592;DHT22;28026;48.562;14.440;2023-03-13T14:50:02;13.80;99.90
41592;DHT22;28026;48.562;14.440;2023-03-13T14:52:54;13.80;99.90
41592;DHT22;28026;48.562;14.440;2023-03-13T14:55:35;14.00;99.90
41592;DHT22;28026;48.562;14.440;2023-03-13T15:00:49;13.90;99.90
41592;DHT22;28026;48.562;14.440;2023-03-13T15:03:24;14.10;99.90
41592;DHT22;28026;48.562;14.440;2023-03-13T15:08:39;14.00;99.90
41592;DHT22;28026;48.562;14.440;2023-03-13T15:11:26;13.90;99.90
41592;DHT22;28026;48.562;14.440;2023-03-13T15:14:03;13.80;99.90
41592;DHT22;28026;48.562;14.440;2023-03-13T15:17:26;13.90;99.90
41592;DHT22;28026;48.562;14.440;2023-03-13T15:19:58;13.80;99.90
41592;DHT22;28026;48.562;14.440;2023-03-13T15:22:36;13.60;99.90
41592;DHT22;28026;48.562;14.440;2023-03-13T15:25:16;14.20;99.90
41592;DHT22;28026;48.562;14.440;2023-03-13T15:27:52;14.30;99.90
41592;DHT22;28026;48.562;14.440;2023-03-13T15:30:23;14.40;99.90
41592;DHT22;28026;48.562;14.440;2023-03-13T15:32:54;14.80;99.90
41592;DHT22;28026;48.562;14.440;2023-03-13T15:35:27;14.40;99.90
41592;DHT22;28026;48.562;14.440;2023-03-13T15:38:01;14.40;99.90
41592;DHT22;28026;48.562;14.440;2023-03-13T15:40:32;14.10;99.90
41592;DHT22;28026;48.562;14.440;2023-03-13T15:43:03;13.90;99.90
41592;DHT22;28026;48.562;14.440;2023-03-13T15:45:35;13.90;99.90
41592;DHT22;28026;48.562;14.440;2023-03-13T15:48:16;13.90;99.90
41592;DHT22;28026;48.562;14.440;2023-03-13T15:51:00;13.50;99.90
41592;DHT22;28026;48.562;14.440;2023-03-13T15:53:33;13.30;99.90
41592;DHT22;28026;48.562;14.440;2023-03-13T15:56:19;13.40;99.90
41592;DHT22;28026;48.562;14.440;2023-03-13T15:58:52;13.50;99.90
41592;DHT22;28026;48.562;14.440;2023-03-13T16:01:25;13.50;99.90
41592;DHT22;28026;48.562;14.440;2023-03-13T16:03:57;13.70;99.90
41592;DHT22;28026;48.562;14.440;2023-03-13T16:06:30;14.00;99.90
41592;DHT22;28026;48.562;14.440;2023-03-13T16:09:03;14.00;99.90
41592;DHT22;28026;48.562;14.440;2023-03-13T16:11:36;13.30;99.90
41592;DHT22;28026;48.562;14.440;2023-03-13T16:14:06;12.90;99.90
41592;DHT22;28026;48.562;14.440;2023-03-13T16:16:38;13.00;99.90
41592;DHT22;28026;48.562;14.440;2023-03-13T16:19:09;13.00;99.90
41592;DHT22;28026;48.562;14.440;2023-03-13T16:21:40;13.00;99.90
41592;DHT22;28026;48.562;14.440;2023-03-13T16:24:17;12.90;99.90
41592;DHT22;28026;48.562;14.440;2023-03-13T16:26:48;12.50;99.90
41592;DHT22;28026;48.562;14.440;2023-03-13T16:29:19;12.50;99.90
41592;DHT22;28026;48.562;14.440;2023-03-13T16:31:50;12.40;99.90
41592;DHT22;28026;48.562;14.440;2023-03-13T16:34:21;12.40;99.90
41592;DHT22;28026;48.562;14.440;2023-03-13T16:36:52;12.10;99.90
41592;DHT22;28026;48.562;14.440;2023-03-13T16:39:23;11.90;99.90
41592;DHT22;28026;48.562;14.440;2023-03-13T16:41:54;11.70;99.90
41592;DHT22;28026;48.562;14.440;2023-03-13T16:44:25;11.50;99.90
41592;DHT22;28026;48.562;14.440;2023-03-13T16:46:55;11.40;99.90
41592;DHT22;28026;48.562;14.440;2023-03-13T16:49:26;11.30;99.90
41592;DHT22;28026;48.562;14.440;2023-03-13T16:51:57;11.10;99.90
41592;DHT22;28026;48.562;14.440;2023-03-13T16:54:28;11.00;99.90
41592;DHT22;28026;48.562;14.440;2023-03-13T16:56:59;10.90;99.90
41592;DHT22;28026;48.562;14.440;2023-03-13T16:59:33;10.90;99.90
41592;DHT22;28026;48.562;14.440;2023-03-13T17:02:15;10.90;99.90
41592;DHT22;28026;48.562;14.440;2023-03-13T17:04:48;10.80;99.90
41592;DHT22;28026;48.562;14.440;2023-03-13T17:07:23;10.70;99.90
41592;DHT22;28026;48.562;14.440;2023-03-13T17:09:56;10.70;99.90
41592;DHT22;28026;48.562;14.440;2023-03-13T17:12:27;10.60;99.90
41592;DHT22;28026;48.562;14.440;2023-03-13T17:14:58;10.60;99.90
41592;DHT22;28026;48.562;14.440;2023-03-13T17:17:29;10.60;99.90
41592;DHT22;28026;48.562;14.440;2023-03-13T17:20:00;10.50;99.90
41592;DHT22;28026;48.562;14.440;2023-03-13T17:22:31;10.50;99.90
41592;DHT22;28026;48.562;14.440;2023-03-13T17:25:03;10.50;99.90
41592;DHT22;28026;48.562;14.440;2023-03-13T17:27:35;10.40;99.90
41592;DHT22;28026;48.562;14.440;2023-03-13T17:32:49;10.30;99.90
41592;DHT22;28026;48.562;14.440;2023-03-13T17:35:21;10.30;99.90
41592;DHT22;28026;48.562;14.440;2023-03-13T17:37:52;10.30;99.90
41592;DHT22;28026;48.562;14.440;2023-03-13T17:40:26;10.30;99.90
41592;DHT22;28026;48.562;14.440;2023-03-13T17:42:59;10.30;99.90
41592;DHT22;28026;48.562;14.440;2023-03-13T17:45:30;10.30;99.90
41592;DHT22;28026;48.562;14.440;2023-03-13T17:48:11;10.20;99.90
41592;DHT22;28026;48.562;14.440;2023-03-13T17:50:42;10.20;99.90
41592;DHT22;28026;48.562;14.440;2023-03-13T17:53:13;10.20;99.90
41592;DHT22;28026;48.562;14.440;2023-03-13T17:55:44;10.30;99.90
41592;DHT22;28026;48.562;14.440;2023-03-13T17:58:15;10.20;99.90